createdAt,value
2023-06-09T00:01:29.371Z,70.18
2023-06-09T00:03:58.685Z,70.41
2023-06-09T00:06:27.675Z,70.55
2023-06-09T00:08:56.276Z,69.70
2023-06-09T00:11:25.991Z,69.44
2023-06-09T00:13:55.593Z,69.91
2023-06-09T00:16:25.993Z,69.92
2023-06-09T00:18:55.236Z,69.54
2023-06-09T00:21:27.112Z,69.39
2023-06-09T00:23:57.910Z,69.60
2023-06-09T00:26:29.079Z,69.44
2023-06-09T00:28:58.670Z,69.79
2023-06-09T00:31:28.080Z,69.17
2023-06-09T00:33:57.031Z,69.25
2023-06-09T00:36:25.695Z,69.24
2023-06-09T00:38:54.557Z,69.65
2023-06-09T00:41:23.874Z,69.28
2023-06-09T00:43:52.635Z,69.63
2023-06-09T00:46:21.815Z,69.46
2023-06-09T00:48:52.612Z,68.92
2023-06-09T00:51:21.452Z,69.17
2023-06-09T00:53:50.424Z,68.96
2023-06-09T00:56:21.778Z,68.33
2023-06-09T00:58:51.073Z,66.98
2023-06-09T01:01:20.866Z,66.90
2023-06-09T01:03:50.809Z,66.37
2023-06-09T01:06:59.131Z,65.78
2023-06-09T01:09:36.609Z,66.47
2023-06-09T01:12:18.573Z,65.84
2023-06-09T01:14:58.248Z,64.46
2023-06-09T01:17:30.581Z,60.80
2023-06-09T01:20:06.696Z,58.54
2023-06-09T01:23:06.635Z,56.34
2023-06-09T01:25:41.891Z,54.61
2023-06-09T01:28:17.131Z,54.63
2023-06-09T01:30:48.613Z,55.08
2023-06-09T01:33:22.188Z,56.71
2023-06-09T01:35:53.028Z,58.04
2023-06-09T01:38:27.978Z,59.25
2023-06-09T01:40:57.168Z,59.08
2023-06-09T01:43:26.627Z,59.59
2023-06-09T01:45:56.040Z,59.65
2023-06-09T01:48:31.009Z,59.77
2023-06-09T01:51:03.248Z,60.39
2023-06-09T01:53:37.712Z,60.73
2023-06-09T01:56:46.907Z,61.30
2023-06-09T01:59:24.674Z,60.21
2023-06-09T02:01:55.011Z,60.52
2023-06-09T02:04:28.146Z,61.03
2023-06-09T02:06:58.225Z,61.03
2023-06-09T02:09:27.527Z,60.46
2023-06-09T02:11:56.685Z,60.34
2023-06-09T02:14:34.595Z,60.19
2023-06-09T02:17:04.775Z,60.03
2023-06-09T02:19:37.993Z,59.84
2023-06-09T02:22:10.866Z,58.70
2023-06-09T02:24:40.029Z,58.66
2023-06-09T02:27:08.867Z,57.81
2023-06-09T02:29:38.087Z,57.15
2023-06-09T02:32:07.395Z,55.48
2023-06-09T02:34:38.985Z,55.68
2023-06-09T02:37:09.205Z,55.31
2023-06-09T02:39:41.823Z,55.65
2023-06-09T02:42:10.849Z,54.50
2023-06-09T02:44:40.647Z,54.22
2023-06-09T02:47:09.611Z,53.54
2023-06-09T02:49:39.007Z,54.38
2023-06-09T02:52:11.588Z,53.69
2023-06-09T02:54:42.308Z,53.67
2023-06-09T02:57:14.355Z,53.03
2023-06-09T02:59:44.780Z,53.10
2023-06-09T03:02:15.289Z,52.53
2023-06-09T03:04:45.072Z,52.24
2023-06-09T03:07:18.309Z,52.02
2023-06-09T03:09:50.458Z,52.26
2023-06-09T03:12:20.003Z,52.91
2023-06-09T03:14:50.821Z,52.85
2023-06-09T03:17:19.914Z,51.34
2023-06-09T03:19:50.457Z,51.28
2023-06-09T03:22:19.989Z,51.62
2023-06-09T03:24:53.719Z,51.23
2023-06-09T03:27:23.449Z,50.29
2023-06-09T03:29:55.216Z,49.53
2023-06-09T03:32:25.096Z,49.80
2023-06-09T03:34:54.870Z,50.32
2023-06-09T03:37:24.726Z,48.92
2023-06-09T03:39:57.267Z,49.39
2023-06-09T03:42:29.873Z,49.24
2023-06-09T03:45:00.727Z,47.92
2023-06-09T03:47:31.916Z,48.46
2023-06-09T03:50:01.545Z,48.70
2023-06-09T03:52:32.710Z,48.40
2023-06-09T03:55:05.728Z,48.31
2023-06-09T03:57:35.947Z,47.94
2023-06-09T04:00:07.782Z,47.57
2023-06-09T04:02:45.543Z,48.03
2023-06-09T04:05:17.473Z,48.36
2023-06-09T04:07:48.893Z,46.78
2023-06-09T04:10:18.053Z,45.29
2023-06-09T04:12:47.104Z,44.14
2023-06-09T04:15:18.854Z,45.00
2023-06-09T04:17:51.927Z,44.72
2023-06-09T04:20:24.424Z,43.48
2023-06-09T04:22:56.112Z,43.29
2023-06-09T04:25:30.511Z,43.79
2023-06-09T04:28:06.455Z,43.25
2023-06-09T04:30:36.129Z,42.47
2023-06-09T04:33:09.709Z,41.76
2023-06-09T04:35:42.951Z,42.32
2023-06-09T04:38:16.290Z,43.15
2023-06-09T04:40:47.461Z,42.08
2023-06-09T04:43:18.571Z,42.29
2023-06-09T04:45:57.042Z,40.80
2023-06-09T04:48:31.290Z,40.75
2023-06-09T04:51:02.028Z,40.15
2023-06-09T04:53:36.714Z,41.03
2023-06-09T04:56:10.117Z,41.79
2023-06-09T04:58:40.769Z,40.40
2023-06-09T05:01:10.246Z,39.96
2023-06-09T05:03:39.796Z,39.18
2023-06-09T05:06:08.786Z,38.65
2023-06-09T05:08:38.188Z,38.43
2023-06-09T05:11:09.433Z,37.42
2023-06-09T05:13:38.426Z,37.04
2023-06-09T05:16:07.711Z,37.74
2023-06-09T05:18:37.092Z,37.26
2023-06-09T05:21:06.808Z,37.82
2023-06-09T05:23:35.907Z,35.91
2023-06-09T05:26:05.418Z,35.22
2023-06-09T05:28:34.932Z,34.92
2023-06-09T05:31:04.512Z,36.09
2023-06-09T05:33:34.027Z,36.14
2023-06-09T05:36:03.873Z,35.46
2023-06-09T05:38:32.931Z,34.67
2023-06-09T05:41:02.041Z,35.35
2023-06-09T05:43:31.653Z,33.51
2023-06-09T05:46:00.564Z,36.46
2023-06-09T05:48:29.389Z,34.63
2023-06-09T05:50:59.552Z,34.18
2023-06-09T05:53:29.673Z,34.04
2023-06-09T05:56:00.829Z,33.81
2023-06-09T05:58:29.831Z,32.93
2023-06-09T06:00:59.808Z,33.11
2023-06-09T06:03:29.151Z,34.57
2023-06-09T06:05:58.291Z,33.01
2023-06-09T06:08:27.650Z,31.58
2023-06-09T06:10:56.949Z,31.89
2023-06-09T06:13:25.801Z,32.29
2023-06-09T06:15:54.673Z,32.86
2023-06-09T06:18:23.990Z,32.53
2023-06-09T06:20:52.781Z,32.77
2023-06-09T06:23:22.034Z,32.61
2023-06-09T06:25:50.992Z,32.22
2023-06-09T06:28:20.974Z,31.50
2023-06-09T06:30:51.824Z,30.24
2023-06-09T06:33:20.824Z,30.40
2023-06-09T06:35:49.932Z,31.11
2023-06-09T06:38:18.619Z,32.06
2023-06-09T06:40:49.769Z,31.59
2023-06-09T06:43:18.714Z,30.57
2023-06-09T06:45:58.379Z,30.81
2023-06-09T06:48:29.744Z,31.80
2023-06-09T06:50:58.623Z,31.82
2023-06-09T06:53:28.754Z,30.73
2023-06-09T06:55:57.911Z,30.10
2023-06-09T06:58:29.789Z,30.78
2023-06-09T07:00:58.667Z,30.21
2023-06-09T07:03:30.820Z,30.72
2023-06-09T07:06:00.065Z,30.90
2023-06-09T07:08:29.400Z,32.08
2023-06-09T07:10:58.321Z,30.59
2023-06-09T07:13:27.545Z,29.40
2023-06-09T07:15:56.958Z,28.79
2023-06-09T07:18:26.417Z,28.54
2023-06-09T07:20:56.118Z,28.72
2023-06-09T07:23:25.124Z,30.12
2023-06-09T07:25:53.903Z,29.81
2023-06-09T07:28:22.619Z,30.58
2023-06-09T07:30:51.427Z,29.90
2023-06-09T07:33:21.714Z,29.94
2023-06-09T07:35:51.069Z,29.00
2023-06-09T07:38:20.277Z,29.44
2023-06-09T07:40:49.046Z,28.61
2023-06-09T07:43:17.835Z,28.04
2023-06-09T07:45:48.494Z,29.16
2023-06-09T07:48:17.394Z,29.06
2023-06-09T07:51:00.826Z,30.25
2023-06-09T07:53:30.273Z,29.55
2023-06-09T07:56:00.707Z,30.21
2023-06-09T07:58:29.877Z,29.70
2023-06-09T08:00:58.779Z,30.74
2023-06-09T08:03:27.718Z,31.46
2023-06-09T08:05:56.860Z,32.09
2023-06-09T08:08:27.291Z,32.50
2023-06-09T08:10:57.287Z,32.85
2023-06-09T08:13:29.954Z,32.82
2023-06-09T08:15:59.925Z,32.57
2023-06-09T08:18:28.982Z,31.62
2023-06-09T08:20:57.693Z,31.70
2023-06-09T08:23:26.532Z,31.98
2023-06-09T08:25:55.524Z,31.86
2023-06-09T08:28:24.433Z,29.91
2023-06-09T08:30:53.758Z,30.69
2023-06-09T08:33:23.321Z,32.08
2023-06-09T08:35:52.130Z,31.13
2023-06-09T08:38:20.876Z,30.34
2023-06-09T08:40:51.926Z,29.52
2023-06-09T08:43:52.662Z,29.36
2023-06-09T08:46:26.297Z,28.50
2023-06-09T08:49:01.732Z,29.23
2023-06-09T08:51:33.868Z,28.31
2023-06-09T08:54:03.228Z,28.72
2023-06-09T08:56:32.199Z,28.78
2023-06-09T08:59:01.324Z,29.30
2023-06-09T09:01:30.775Z,28.79
2023-06-09T09:04:00.982Z,29.56
2023-06-09T09:06:31.282Z,30.77
2023-06-09T09:09:00.018Z,29.40
2023-06-09T09:11:32.602Z,29.14
2023-06-09T09:14:11.321Z,27.84
2023-06-09T09:16:40.889Z,28.35
2023-06-09T09:19:09.903Z,28.27
2023-06-09T09:21:40.627Z,28.21
2023-06-09T09:24:12.313Z,27.72
2023-06-09T09:26:43.718Z,27.32
2023-06-09T09:29:12.524Z,27.20
2023-06-09T09:31:43.713Z,28.41
2023-06-09T09:34:14.690Z,26.93
2023-06-09T09:36:47.600Z,26.99
2023-06-09T09:39:17.304Z,27.00
2023-06-09T09:42:05.139Z,27.45
2023-06-09T09:44:45.643Z,27.14
2023-06-09T09:47:17.800Z,28.34
2023-06-09T09:49:56.693Z,28.47
2023-06-09T09:52:31.864Z,28.03
2023-06-09T09:55:13.383Z,27.73
2023-06-09T09:57:42.864Z,27.31
2023-06-09T10:00:14.970Z,27.35
2023-06-09T10:02:47.708Z,28.13
2023-06-09T10:05:19.391Z,26.85
2023-06-09T10:07:53.826Z,29.24
2023-06-09T10:10:23.714Z,28.07
2023-06-09T10:12:54.678Z,27.98
2023-06-09T10:15:24.559Z,27.69
2023-06-09T10:17:56.779Z,27.92
2023-06-09T10:20:26.086Z,27.18
2023-06-09T10:22:55.898Z,27.14
2023-06-09T10:25:26.178Z,28.06
2023-06-09T10:27:55.391Z,27.10
2023-06-09T10:30:25.050Z,26.56
2023-06-09T10:32:59.293Z,27.10
2023-06-09T10:35:31.616Z,27.41
2023-06-09T10:38:01.372Z,27.05
2023-06-09T10:40:52.108Z,26.77
2023-06-09T10:43:43.712Z,27.20
2023-06-09T10:46:16.766Z,26.19
2023-06-09T10:48:53.859Z,26.43
2023-06-09T10:51:31.050Z,26.79
2023-06-09T10:54:18.658Z,27.84
2023-06-09T10:56:57.833Z,26.43
2023-06-09T10:59:32.555Z,27.56
2023-06-09T11:02:02.453Z,26.19
2023-06-09T11:04:47.789Z,26.75
2023-06-09T11:07:21.591Z,27.16
2023-06-09T11:09:53.422Z,26.30
2023-06-09T11:12:49.124Z,26.56
2023-06-09T11:15:19.076Z,25.71
2023-06-09T11:17:58.098Z,26.16
2023-06-09T11:20:27.258Z,27.42
2023-06-09T11:23:03.122Z,27.62
2023-06-09T11:25:32.523Z,27.74
2023-06-09T11:28:02.690Z,27.82
2023-06-09T11:30:34.069Z,28.54
2023-06-09T11:33:06.343Z,28.82
2023-06-09T11:35:41.848Z,28.66
2023-06-09T11:38:12.611Z,27.94
2023-06-09T11:40:54.121Z,28.64
2023-06-09T11:43:24.386Z,28.53
2023-06-09T11:46:03.480Z,28.28
2023-06-09T11:48:32.712Z,28.14
2023-06-09T11:51:03.444Z,28.39
2023-06-09T11:53:32.512Z,28.98
2023-06-09T11:56:05.740Z,28.80
2023-06-09T11:58:34.850Z,27.17
2023-06-09T12:01:03.778Z,29.14
2023-06-09T12:03:38.354Z,29.08
2023-06-09T12:06:07.718Z,28.46
2023-06-09T12:08:37.508Z,28.15
2023-06-09T12:11:18.663Z,28.26
2023-06-09T12:13:50.065Z,28.43
2023-06-09T12:16:19.156Z,28.37
2023-06-09T12:18:47.798Z,28.92
2023-06-09T12:21:16.599Z,28.84
2023-06-09T12:23:45.374Z,29.38
2023-06-09T12:26:22.960Z,28.15
2023-06-09T12:28:57.857Z,29.26
2023-06-09T12:31:26.836Z,29.31
2023-06-09T12:33:58.689Z,28.59
2023-06-09T12:36:27.508Z,28.42
2023-06-09T12:38:56.411Z,28.60
2023-06-09T12:41:27.938Z,28.96
2023-06-09T12:44:01.083Z,29.07
2023-06-09T12:46:38.362Z,28.00
2023-06-09T12:49:11.380Z,28.61
2023-06-09T12:51:43.580Z,28.73
2023-06-09T12:54:16.550Z,30.31
2023-06-09T12:56:45.362Z,29.63
2023-06-09T12:59:14.941Z,29.16
2023-06-09T13:01:44.095Z,29.19
2023-06-09T13:04:13.603Z,29.50
2023-06-09T13:06:42.543Z,29.29
2023-06-09T13:09:12.177Z,28.95
2023-06-09T13:11:41.197Z,29.53
2023-06-09T13:14:10.799Z,29.25
2023-06-09T13:16:39.683Z,28.72
2023-06-09T13:19:08.485Z,29.07
2023-06-09T13:21:43.646Z,29.13
2023-06-09T13:24:14.217Z,29.33
2023-06-09T13:26:43.476Z,29.69
2023-06-09T13:29:12.913Z,29.55
2023-06-09T13:31:41.822Z,29.82
2023-06-09T13:34:10.700Z,30.24
2023-06-09T13:36:40.038Z,30.37
2023-06-09T13:39:09.003Z,30.31
2023-06-09T13:41:37.869Z,30.08
2023-06-09T13:44:07.720Z,29.79
2023-06-09T13:46:39.340Z,30.33
2023-06-09T13:49:08.982Z,29.80
2023-06-09T13:51:39.158Z,29.62
2023-06-09T13:54:08.122Z,29.52
2023-06-09T13:56:38.103Z,29.78
2023-06-09T13:59:07.499Z,30.26
2023-06-09T14:01:39.794Z,29.97
2023-06-09T14:04:13.434Z,30.77
2023-06-09T14:06:43.081Z,30.65
2023-06-09T14:09:14.103Z,30.94
2023-06-09T14:11:43.076Z,30.39
2023-06-09T14:14:12.636Z,30.49
2023-06-09T14:16:41.748Z,31.00
2023-06-09T14:19:10.803Z,30.63
2023-06-09T14:21:39.785Z,30.91
2023-06-09T14:24:09.965Z,32.42
2023-06-09T14:26:39.326Z,33.67
2023-06-09T14:29:08.411Z,34.36
2023-06-09T14:31:38.334Z,35.09
2023-06-09T14:34:11.941Z,37.29
2023-06-09T14:36:41.405Z,40.00
2023-06-09T14:39:11.825Z,38.73
2023-06-09T14:41:41.265Z,39.95
2023-06-09T14:44:13.242Z,39.75
2023-06-09T14:46:42.113Z,39.24
2023-06-09T14:49:14.010Z,40.83
2023-06-09T14:51:43.057Z,40.63
2023-06-09T14:54:11.880Z,41.78
2023-06-09T14:56:40.601Z,39.91
2023-06-09T14:59:09.446Z,43.22
2023-06-09T15:01:38.699Z,43.04
2023-06-09T15:04:07.610Z,42.47
2023-06-09T15:06:37.682Z,42.09
2023-06-09T15:09:07.188Z,42.34
2023-06-09T15:11:36.166Z,43.80
2023-06-09T15:14:05.413Z,44.39
2023-06-09T15:16:34.392Z,44.38
2023-06-09T15:19:03.834Z,44.72
2023-06-09T15:21:35.743Z,45.44
2023-06-09T15:24:09.446Z,44.52
2023-06-09T15:26:40.402Z,45.95
2023-06-09T15:29:09.621Z,44.82
2023-06-09T15:31:38.913Z,45.15
2023-06-09T15:34:08.113Z,44.48
2023-06-09T15:36:39.525Z,44.97
2023-06-09T15:39:12.092Z,46.31
2023-06-09T15:41:41.672Z,46.83
2023-06-09T15:44:11.359Z,47.05
2023-06-09T15:46:41.027Z,47.19
2023-06-09T15:49:10.720Z,47.46
2023-06-09T15:51:39.563Z,47.76
2023-06-09T15:54:08.484Z,48.00
2023-06-09T15:56:40.056Z,47.86
2023-06-09T15:59:09.392Z,47.58
2023-06-09T16:01:38.821Z,47.96
2023-06-09T16:04:08.752Z,48.39
2023-06-09T16:06:38.465Z,48.00
2023-06-09T16:09:07.765Z,48.31
2023-06-09T16:11:37.318Z,47.95
2023-06-09T16:14:07.059Z,47.54
2023-06-09T16:16:36.404Z,49.79
2023-06-09T16:19:06.677Z,48.38
2023-06-09T16:21:36.003Z,48.62
2023-06-09T16:24:05.606Z,48.73
2023-06-09T16:26:35.126Z,49.50
2023-06-09T16:29:03.779Z,50.05
2023-06-09T16:31:33.192Z,49.81
2023-06-09T16:34:02.121Z,51.11
2023-06-09T16:36:31.502Z,50.97
2023-06-09T16:39:00.515Z,50.52
2023-06-09T16:41:32.705Z,51.45
2023-06-09T16:44:03.260Z,52.44
2023-06-09T16:46:32.368Z,52.86
2023-06-09T16:49:02.096Z,52.54
2023-06-09T16:51:32.256Z,52.15
2023-06-09T16:54:01.891Z,51.62
2023-06-09T16:56:31.418Z,52.33
2023-06-09T16:59:01.500Z,51.17
2023-06-09T17:01:30.882Z,51.53
2023-06-09T17:04:00.588Z,51.62
2023-06-09T17:06:29.532Z,52.80
2023-06-09T17:09:03.887Z,52.08
2023-06-09T17:11:33.692Z,51.63
2023-06-09T17:14:06.117Z,51.74
2023-06-09T17:16:35.683Z,51.66
2023-06-09T17:19:04.981Z,51.13
2023-06-09T17:21:35.839Z,52.36
2023-06-09T17:24:07.482Z,52.65
2023-06-09T17:26:37.621Z,53.19
2023-06-09T17:29:07.378Z,52.15
2023-06-09T17:31:36.852Z,53.12
2023-06-09T17:34:06.629Z,53.48
2023-06-09T17:36:35.057Z,52.45
2023-06-09T17:39:04.859Z,52.63
2023-06-09T17:41:34.179Z,53.13
2023-06-09T17:44:03.201Z,53.13
2023-06-09T17:46:32.619Z,53.88
2023-06-09T17:49:01.702Z,53.03
2023-06-09T17:51:31.204Z,53.76
2023-06-09T17:54:00.580Z,53.82
2023-06-09T17:56:29.887Z,53.30
2023-06-09T17:58:59.128Z,53.58
2023-06-09T18:01:28.860Z,53.99
2023-06-09T18:03:58.010Z,54.33
2023-06-09T18:06:27.104Z,55.15
2023-06-09T18:08:56.286Z,53.87
2023-06-09T18:11:25.401Z,54.23
2023-06-09T18:13:55.400Z,54.83
2023-06-09T18:16:24.957Z,54.93
2023-06-09T18:18:54.221Z,54.78
2023-06-09T18:21:23.651Z,54.56
2023-06-09T18:23:53.185Z,55.42
2023-06-09T18:26:21.959Z,55.96
2023-06-09T18:28:50.567Z,56.46
2023-06-09T18:31:20.516Z,56.82
2023-06-09T18:33:49.673Z,57.23
2023-06-09T18:36:18.248Z,56.38
2023-06-09T18:38:47.142Z,58.25
2023-06-09T18:41:18.039Z,58.50
2023-06-09T18:43:47.461Z,55.36
2023-06-09T18:46:18.527Z,56.43
2023-06-09T18:48:59.681Z,57.76
2023-06-09T18:51:30.012Z,56.89
2023-06-09T18:53:59.573Z,56.68
2023-06-09T18:56:31.171Z,56.60
2023-06-09T18:59:00.346Z,57.98
2023-06-09T19:01:31.399Z,58.87
2023-06-09T19:04:00.480Z,56.21
2023-06-09T19:06:29.373Z,57.52
2023-06-09T19:08:58.902Z,58.27
2023-06-09T19:11:27.788Z,58.53
2023-06-09T19:13:59.512Z,58.65
2023-06-09T19:16:28.417Z,59.05
2023-06-09T19:18:57.041Z,58.68
2023-06-09T19:21:26.338Z,59.29
2023-06-09T19:23:57.953Z,59.16
2023-06-09T19:26:28.345Z,58.56
2023-06-09T19:28:57.638Z,59.32
2023-06-09T19:31:26.613Z,59.16
2023-06-09T19:33:57.329Z,59.29
2023-06-09T19:36:26.165Z,59.17
2023-06-09T19:38:58.313Z,57.60
2023-06-09T19:41:27.916Z,57.90
2023-06-09T19:43:56.921Z,57.30
2023-06-09T19:46:25.654Z,57.33
2023-06-09T19:48:57.244Z,56.99
2023-06-09T19:51:25.982Z,58.53
2023-06-09T19:53:55.424Z,58.96
2023-06-09T19:56:24.826Z,60.04
2023-06-09T19:58:53.621Z,60.01
2023-06-09T20:01:23.692Z,60.10
2023-06-09T20:03:52.805Z,60.09
2023-06-09T20:06:21.663Z,60.56
2023-06-09T20:08:50.451Z,61.31
2023-06-09T20:11:19.360Z,61.24
2023-06-09T20:13:48.580Z,61.43
2023-06-09T20:16:18.134Z,61.46
2023-06-09T20:18:47.101Z,61.36
2023-06-09T20:21:17.020Z,61.74
2023-06-09T20:23:46.393Z,60.97
2023-06-09T20:26:15.285Z,62.48
2023-06-09T20:28:45.120Z,62.47
2023-06-09T20:31:13.994Z,62.34
2023-06-09T20:33:44.334Z,62.13
2023-06-09T20:36:16.065Z,62.62
2023-06-09T20:38:45.404Z,63.06
2023-06-09T20:41:14.347Z,62.76
2023-06-09T20:43:43.234Z,62.37
2023-06-09T20:46:13.011Z,63.42
2023-06-09T20:48:43.389Z,62.48
2023-06-09T20:51:12.100Z,63.12
2023-06-09T20:53:41.962Z,63.89
2023-06-09T20:56:12.418Z,63.41
2023-06-09T20:58:41.978Z,63.67
2023-06-09T21:01:15.734Z,63.43
2023-06-09T21:03:49.370Z,63.18
2023-06-09T21:06:24.283Z,63.80
2023-06-09T21:08:53.942Z,64.42
2023-06-09T21:11:23.638Z,63.79
2023-06-09T21:13:52.238Z,63.47
2023-06-09T21:16:22.693Z,63.84
2023-06-09T21:18:51.961Z,63.28
2023-06-09T21:21:23.241Z,63.60
2023-06-09T21:23:52.113Z,63.88
2023-06-09T21:26:20.760Z,64.10
2023-06-09T21:28:49.620Z,63.76
2023-06-09T21:31:18.602Z,64.28
2023-06-09T21:33:47.239Z,63.17
2023-06-09T21:36:16.122Z,62.27
2023-06-09T21:38:44.949Z,63.16
2023-06-09T21:41:13.907Z,64.03
2023-06-09T21:43:44.100Z,63.84
2023-06-09T21:46:13.045Z,64.40
2023-06-09T21:48:43.642Z,65.25
2023-06-09T21:51:14.026Z,65.15
2023-06-09T21:53:42.850Z,65.91
2023-06-09T21:56:13.044Z,65.44
2023-06-09T21:58:41.886Z,65.83
2023-06-09T22:01:10.842Z,66.11
2023-06-09T22:03:39.779Z,66.21
2023-06-09T22:06:08.645Z,67.00
2023-06-09T22:08:39.384Z,65.92
2023-06-09T22:11:08.331Z,66.51
2023-06-09T22:13:37.121Z,66.85
2023-06-09T22:16:06.314Z,67.24
2023-06-09T22:18:35.064Z,66.17
2023-06-09T22:21:10.200Z,65.05
2023-06-09T22:23:42.036Z,65.38
2023-06-09T22:26:11.132Z,65.83
2023-06-09T22:28:39.800Z,66.06
2023-06-09T22:31:09.805Z,66.49
2023-06-09T22:33:38.881Z,67.24
2023-06-09T22:36:07.863Z,66.47
2023-06-09T22:38:36.580Z,67.03
2023-06-09T22:41:06.436Z,67.41
2023-06-09T22:43:35.280Z,67.58
2023-06-09T22:46:04.921Z,66.91
2023-06-09T22:48:37.200Z,67.01
2023-06-09T22:51:06.573Z,67.68
2023-06-09T22:53:38.996Z,66.94
2023-06-09T22:56:07.774Z,67.49
2023-06-09T22:58:36.597Z,67.66
2023-06-09T23:01:06.374Z,67.54
2023-06-09T23:03:38.339Z,67.94
2023-06-09T23:06:10.078Z,67.46
2023-06-09T23:08:38.703Z,68.56
2023-06-09T23:11:11.248Z,68.17
2023-06-09T23:13:40.279Z,67.86
2023-06-09T23:16:10.444Z,67.65
2023-06-09T23:18:40.682Z,67.62
2023-06-09T23:21:11.485Z,67.65
2023-06-09T23:23:40.486Z,67.44
2023-06-09T23:26:09.522Z,67.76
2023-06-09T23:28:40.744Z,67.59
2023-06-09T23:31:09.592Z,68.90
2023-06-09T23:33:41.564Z,69.09
2023-06-09T23:36:10.622Z,68.73
2023-06-09T23:38:39.501Z,68.43
2023-06-09T23:41:08.401Z,65.85
2023-06-09T23:43:37.241Z,63.49
2023-06-09T23:46:06.058Z,61.06
2023-06-09T23:48:37.572Z,61.36
2023-06-09T23:51:07.409Z,62.49
2023-06-09T23:53:36.287Z,61.37
2023-06-09T23:56:05.179Z,59.63
2023-06-09T23:58:34.281Z,59.24
